OIMB  Birjand  Airport

Birjand, Iran

Add Bookmark
ICAO OIMB
Type Airport
Status Operational
Latitude
32° 53' 53" N
32.898102
Longitude
59° 15' 57" E
59.266102
Local (DST + 5) UTC (GMT + 4)
Apr 27, 2015 11:36 Apr 27, 2015 07:06
Sunrise-Sunset Local UTC
Begin Civil Twilight 05:22 00:52
Sunrise 05:48 01:18
Sunset 07:12 14:42
End Civil Twilight 07:38 15:08
VFR
VFR
MVFR
MVFR
IFR
VFR
LIFR
VFR
Unknown
Unavailable

Current Weather

METAR Observed VFR
OIMB 270600Z 00000KT CAVOK 21/M18 Q1024 Mon, Apr 27, 2015 @ 06:00 UTC
(1 Hour, 6 Minutes ago)
Visual Flight Rules
Wind Visibility Conditions
Calm 10 km or more
  • No significant weather
Temperatures Readings Precipitation
Current Temp
21°C
70°F
Dewpoint
-18°C
-0°F
Humidity 6%
Altimeter 30.24" Hg
Sea Level Pressure 1,024 mb
Field Elevation
1,491 m
4,892 ft
None Recorded
-
-

CheckWX.com is intended as a tool to help pilots better visualize weather data. It is not intended as a substitute for an official weather briefing obtained from a Flight Service Station. CheckWX.com does not meet the FAA requirements for an official pre-flight weather briefing. Therefore, it's important that pilots still call and obtain an official FSS pre-flight weather briefing.

© 2007-2015 CheckWX.com
07:06:09 UTC